Time;durP1;ratioP1;P1;durP2;ratioP2;P2;SDS_P1;SDS_P2;PMS_P1;PMS_P2;Temp;Humidity;BMP_temperature;BMP_pressure;BME280_temperature;BME280_humidity;BME280_pressure;Samples;Min_cycle;Max_cycle;Signal;HPM_P1;HPM_P2
2022/01/22 00:02:20;;;;;;;50.17;27.13;;;13.00;70.80;;;;;;5269715;28;20504;-35
2022/01/22 00:04:51;;;;;;;32.67;20.70;;;13.00;70.70;;;;;;5269974;28;20131;-33
2022/01/22 00:07:22;;;;;;;38.87;22.90;;;13.00;70.80;;;;;;5270703;28;20134;-33
2022/01/22 00:09:59;;;;;;;52.73;32.63;;;13.00;70.80;;;;;;5270046;28;20047;-36
2022/01/22 00:15:23;;;;;;;107.23;58.13;;;12.90;70.40;;;;;;5226046;28;20049;-32
2022/01/22 00:17:54;;;;;;;95.63;48.67;;;13.00;70.30;;;;;;5226141;28;20114;-35
2022/01/22 00:20:26;;;;;;;139.77;73.37;;;12.90;70.20;;;;;;5225946;28;20076;-32
2022/01/22 00:22:57;;;;;;;117.17;62.97;;;12.80;70.30;;;;;;5226449;28;20460;-34
2022/01/22 00:25:28;;;;;;;73.10;42.77;;;12.90;70.70;;;;;;5225659;28;20068;-31
2022/01/22 00:28:01;;;;;;;71.77;40.23;;;12.90;71.30;;;;;;5225761;28;20072;-34
2022/01/22 00:30:32;;;;;;;51.15;29.13;;;12.90;71.40;;;;;;5225907;28;20518;-34
2022/01/22 00:33:02;;;;;;;67.87;39.07;;;12.90;71.00;;;;;;5225781;28;20107;-34
2022/01/22 00:35:34;;;;;;;102.47;60.47;;;12.80;70.90;;;;;;5225756;28;20518;-32
2022/01/22 00:38:05;;;;;;;65.20;39.87;;;12.80;70.60;;;;;;5225517;28;20077;-33
2022/01/22 00:40:36;;;;;;;57.47;35.97;;;12.80;70.50;;;;;;5225746;28;20128;-34
2022/01/22 00:43:07;;;;;;;59.33;37.63;;;12.80;70.30;;;;;;5226007;28;20128;-32
2022/01/22 00:45:38;;;;;;;40.77;26.90;;;12.80;70.10;;;;;;5225136;28;20049;-30
2022/01/22 00:48:09;;;;;;;36.97;22.17;;;12.80;70.00;;;;;;5225571;28;20045;-32
2022/01/22 00:50:40;;;;;;;42.40;26.33;;;12.70;69.90;;;;;;5225411;28;20110;-36
2022/01/22 00:53:11;;;;;;;50.10;31.07;;;12.80;69.80;;;;;;5261449;28;20055;-37
2022/01/22 00:55:42;;;;;;;48.10;28.27;;;12.80;69.70;;;;;;5269420;28;20044;-30
2022/01/22 00:58:13;;;;;;;51.20;28.93;;;12.70;69.60;;;;;;5269113;28;20047;-33
2022/01/22 01:00:44;;;;;;;32.03;18.20;;;12.70;69.60;;;;;;5267998;28;20036;-32
2022/01/22 01:03:15;;;;;;;28.03;17.77;;;12.70;69.80;;;;;;5269304;28;20533;-32
2022/01/22 01:05:46;;;;;;;29.10;20.87;;;12.70;69.70;;;;;;5270474;28;20074;-34
2022/01/22 01:08:17;;;;;;;27.60;17.40;;;12.70;69.60;;;;;;5273915;28;20048;-33
2022/01/22 01:10:49;;;;;;;18.87;12.50;;;12.70;69.70;;;;;;5272025;28;20105;-34
2022/01/22 01:13:20;;;;;;;14.30;8.73;;;12.70;69.60;;;;;;5273966;28;20070;-31
2022/01/22 01:16:17;;;;;;;20.83;12.93;;;12.60;69.90;;;;;;5273212;28;20130;-30
2022/01/22 01:35:31;;;;;;;13.43;7.50;;;12.60;71.50;;;;;;5273436;28;20470;-36
2022/01/22 01:38:03;;;;;;;11.75;7.45;;;12.60;71.50;;;;;;5272852;28;20052;-32
2022/01/22 01:44:20;;;;;;;15.30;8.80;;;12.60;71.00;;;;;;5272626;28;20071;-30
2022/01/22 01:46:55;;;;;;;9.90;6.20;;;12.60;70.80;;;;;;5271688;28;20148;-32
2022/01/22 01:49:27;;;;;;;13.93;7.97;;;12.60;70.80;;;;;;5272993;28;20071;-36
2022/01/22 01:52:01;;;;;;;10.53;6.23;;;12.60;70.60;;;;;;5272748;28;20048;-35
2022/01/22 01:59:59;;;;;;;8.30;5.20;;;12.50;70.50;;;;;;5272866;28;20044;-35
2022/01/22 02:02:32;;;;;;;6.83;4.57;;;12.50;70.40;;;;;;5272300;28;20072;-35
2022/01/22 02:05:04;;;;;;;7.25;4.25;;;12.50;70.50;;;;;;5272408;28;20044;-36
2022/01/22 02:07:38;;;;;;;9.87;6.00;;;12.50;70.50;;;;;;5272453;28;20070;-32
2022/01/22 02:10:14;;;;;;;9.23;5.83;;;12.50;70.50;;;;;;5272143;28;20158;-31
2022/01/22 02:13:38;;;;;;;8.10;3.93;;;12.50;70.40;;;;;;5272414;28;20089;-36
2022/01/22 02:24:08;;;;;;;8.33;4.60;;;12.50;70.80;;;;;;5269563;28;20131;-31
2022/01/22 02:26:48;;;;;;;8.63;4.20;;;12.50;71.00;;;;;;5253010;28;20151;-36
2022/01/22 02:29:19;;;;;;;7.97;4.67;;;12.50;71.00;;;;;;5270096;28;20091;-35
2022/01/22 02:35:00;;;;;;;12.90;7.22;;;12.50;70.80;;;;;;5207857;28;20542;-35
2022/01/22 02:37:36;;;;;;;10.53;5.77;;;12.40;70.80;;;;;;5174964;28;20435;-38
2022/01/22 02:40:13;;;;;;;7.27;4.50;;;12.40;70.80;;;;;;5191568;28;20088;-35
2022/01/22 02:42:44;;;;;;;6.87;3.30;;;12.40;70.80;;;;;;5206991;28;20136;-34
2022/01/22 02:45:19;;;;;;;7.03;3.87;;;12.40;70.70;;;;;;5190520;28;20471;-32
2022/01/22 02:47:51;;;;;;;5.73;3.60;;;12.40;70.80;;;;;;5207454;28;20042;-31
2022/01/22 02:50:22;;;;;;;5.80;3.50;;;12.30;71.00;;;;;;5206853;28;20080;-39
2022/01/22 02:52:53;;;;;;;7.03;3.70;;;12.30;72.50;;;;;;5190535;28;20075;-36
2022/01/22 02:55:24;;;;;;;5.10;3.20;;;12.30;72.80;;;;;;5206862;28;20083;-33
2022/01/22 02:57:55;;;;;;;6.10;3.27;;;12.30;72.70;;;;;;5206889;28;20053;-34
2022/01/22 03:00:26;;;;;;;6.20;3.47;;;12.30;72.40;;;;;;5206654;28;20046;-35
2022/01/22 03:02:57;;;;;;;5.23;3.70;;;12.30;72.20;;;;;;5206776;28;20116;-40
2022/01/22 03:05:28;;;;;;;6.20;3.50;;;12.30;71.90;;;;;;5206723;28;20140;-33
2022/01/22 03:08:04;;;;;;;7.53;4.50;;;12.30;71.90;;;;;;5206518;28;20132;-36
2022/01/22 03:10:36;;;;;;;13.07;7.13;;;12.30;71.60;;;;;;5243789;28;20091;-34
2022/01/22 03:16:10;;;;;;;21.20;11.07;;;12.30;71.30;;;;;;5206467;28;20049;-36
2022/01/22 03:29:43;;;;;;;4.90;3.00;;;12.30;70.80;;;;;;5145045;28;20074;-37
2022/01/22 03:32:14;;;;;;;6.10;3.67;;;12.30;70.60;;;;;;5145479;28;20051;-36
2022/01/22 03:34:57;;;;;;;6.10;3.57;;;12.30;70.50;;;;;;5145097;28;20055;-34
2022/01/22 03:37:28;;;;;;;5.82;3.50;;;12.20;70.40;;;;;;5145263;28;20162;-38
2022/01/22 03:39:59;;;;;;;7.37;4.37;;;12.30;70.30;;;;;;5145475;28;20178;-33
2022/01/22 03:42:30;;;;;;;6.13;3.67;;;12.20;70.20;;;;;;5145187;28;20046;-33
2022/01/22 03:45:03;;;;;;;7.13;3.80;;;12.30;70.20;;;;;;5128968;28;20070;-34
2022/01/22 03:47:34;;;;;;;9.63;4.25;;;12.20;70.10;;;;;;5145178;28;20059;-35
2022/01/22 03:50:05;;;;;;;7.37;3.40;;;12.30;70.00;;;;;;5144803;28;20066;-35
2022/01/22 03:52:36;;;;;;;7.33;3.60;;;12.20;69.90;;;;;;5169098;28;20076;-35
2022/01/22 03:55:11;;;;;;;6.60;3.93;;;12.20;69.90;;;;;;5226446;28;20049;-36
2022/01/22 03:57:42;;;;;;;7.40;4.40;;;12.30;69.90;;;;;;5210116;28;20084;-35
2022/01/22 04:00:13;;;;;;;8.00;5.57;;;12.20;69.80;;;;;;5233067;28;20044;-34
2022/01/22 04:05:24;;;;;;;6.17;4.30;;;12.20;69.80;;;;;;5269338;28;20122;-41
2022/01/22 04:10:26;;;;;;;5.10;3.27;;;12.30;69.80;;;;;;5269282;28;20048;-37
2022/01/22 04:13:02;;;;;;;5.17;3.07;;;12.30;70.00;;;;;;5269901;28;20123;-38
2022/01/22 04:15:37;;;;;;;5.83;3.17;;;12.30;70.10;;;;;;5270109;28;20517;-38
2022/01/22 04:26:52;;;;;;;13.10;6.60;;;12.20;70.30;;;;;;5266655;28;20048;-36
2022/01/22 04:29:24;;;;;;;5.67;3.50;;;12.30;70.30;;;;;;5259875;28;20063;-33
2022/01/22 04:31:57;;;;;;;5.80;3.20;;;12.40;70.30;;;;;;5267552;28;20674;-39
2022/01/22 04:34:28;;;;;;;5.47;3.50;;;12.40;70.10;;;;;;5267293;28;20044;-37
2022/01/22 04:36:59;;;;;;;8.37;4.10;;;12.50;70.20;;;;;;5267303;28;20876;-36
2022/01/22 04:39:30;;;;;;;10.40;6.20;;;12.50;70.10;;;;;;5266038;28;20074;-36
2022/01/22 04:42:02;;;;;;;7.97;4.37;;;12.50;70.10;;;;;;5265214;28;20079;-33
2022/01/22 04:44:39;;;;;;;7.47;4.77;;;12.50;70.30;;;;;;5267104;28;20040;-39
2022/01/22 04:47:31;;;;;;;9.27;5.17;;;12.50;70.60;;;;;;5267277;28;20036;-39
2022/01/22 04:55:45;;;;;;;16.77;8.73;;;12.50;72.00;;;;;;5264591;28;20094;-41
2022/01/22 04:58:16;;;;;;;9.50;5.50;;;12.60;71.80;;;;;;5253466;28;20056;-42
2022/01/22 05:00:47;;;;;;;8.13;4.40;;;12.50;71.80;;;;;;5261444;28;20089;-38
2022/01/22 05:03:18;;;;;;;7.67;4.27;;;12.50;71.20;;;;;;5264675;28;20442;-36
2022/01/22 05:05:49;;;;;;;8.97;5.00;;;12.50;71.00;;;;;;5264372;28;20070;-37
2022/01/22 05:08:20;;;;;;;7.97;4.73;;;12.50;70.70;;;;;;5264569;28;20109;-36
2022/01/22 05:10:51;;;;;;;5.40;3.97;;;12.40;70.60;;;;;;5264612;28;20071;-35
2022/01/22 05:13:22;;;;;;;5.57;2.90;;;12.40;70.30;;;;;;5264613;28;20067;-37
2022/01/22 05:15:53;;;;;;;4.77;2.87;;;12.40;70.10;;;;;;5264575;28;20123;-37
2022/01/22 05:18:24;;;;;;;5.10;2.93;;;12.30;70.00;;;;;;5264419;28;20509;-38
2022/01/22 05:21:06;;;;;;;5.67;3.63;;;12.40;69.90;;;;;;5264311;28;20485;-34
2022/01/22 05:23:39;;;;;;;5.20;3.63;;;12.40;69.90;;;;;;5264468;28;20505;-37
2022/01/22 05:26:28;;;;;;;4.78;3.15;;;12.40;69.80;;;;;;5264299;28;20098;-38
2022/01/22 05:29:16;;;;;;;5.60;3.10;;;12.40;69.60;;;;;;5264290;28;20044;-39
2022/01/22 05:37:09;;;;;;;6.80;2.80;;;12.20;69.90;;;;;;5266730;28;20076;-35
2022/01/22 05:39:40;;;;;;;7.20;4.60;;;12.20;70.00;;;;;;5266744;28;20127;-36
2022/01/22 05:42:12;;;;;;;7.30;4.93;;;12.10;69.80;;;;;;5266748;28;20405;-38
2022/01/22 05:44:43;;;;;;;11.43;8.10;;;12.10;70.00;;;;;;5266321;28;20056;-36
2022/01/22 05:47:20;;;;;;;11.87;8.93;;;12.20;70.00;;;;;;5266511;28;20076;-36
2022/01/22 05:49:51;;;;;;;16.03;12.37;;;12.30;69.70;;;;;;5266404;28;20061;-34
2022/01/22 05:52:31;;;;;;;16.10;12.07;;;12.30;69.30;;;;;;5268215;28;20079;-36
2022/01/22 06:00:24;;;;;;;12.63;6.97;;;12.40;68.60;;;;;;5270141;28;20504;-34
2022/01/22 06:02:55;;;;;;;17.50;7.20;;;12.30;68.20;;;;;;5270157;28;20054;-35
2022/01/22 06:05:26;;;;;;;15.97;6.97;;;12.40;68.30;;;;;;5269988;28;20056;-38
2022/01/22 06:07:57;;;;;;;14.93;7.23;;;12.50;67.80;;;;;;5269978;28;20044;-34
2022/01/22 06:10:29;;;;;;;12.43;5.00;;;12.60;67.70;;;;;;5270074;28;20378;-41
2022/01/22 06:15:40;;;;;;;10.83;5.60;;;12.80;67.10;;;;;;5268915;28;20063;-34
2022/01/22 06:18:11;;;;;;;17.13;7.70;;;13.00;67.00;;;;;;5269675;28;20611;-33
2022/01/22 06:20:42;;;;;;;17.27;8.23;;;13.10;66.80;;;;;;5269807;28;20056;-33
2022/01/22 06:23:14;;;;;;;11.67;5.53;;;13.20;66.70;;;;;;5269201;28;20060;-36
2022/01/22 06:25:45;;;;;;;8.83;4.67;;;13.20;66.40;;;;;;5268263;28;20047;-32
2022/01/22 06:28:16;;;;;;;10.10;5.67;;;13.20;66.30;;;;;;5269545;28;20043;-36
2022/01/22 06:30:47;;;;;;;10.60;5.60;;;13.10;66.20;;;;;;5269588;28;20113;-36
2022/01/22 06:33:18;;;;;;;11.07;5.70;;;13.20;66.30;;;;;;5271510;28;20040;-35
2022/01/22 06:35:50;;;;;;;15.73;9.03;;;13.10;66.20;;;;;;5271375;28;20063;-35
2022/01/22 06:38:22;;;;;;;11.52;7.05;;;13.00;66.60;;;;;;5271410;28;20055;-34
2022/01/22 06:43:42;;;;;;;12.80;8.90;;;12.90;66.70;;;;;;5271058;28;20044;-35
2022/01/22 06:46:13;;;;;;;12.43;7.23;;;12.10;66.70;;;;;;5270293;28;20139;-37
2022/01/22 06:48:45;;;;;;;11.37;6.33;;;10.30;69.50;;;;;;5271240;28;20064;-35
2022/01/22 06:51:17;;;;;;;;;;;9.30;71.70;;;;;;5272338;28;20497;-31
2022/01/22 06:53:49;;;;;;;;;;;8.90;73.50;;;;;;5271778;28;20285;-36
2022/01/22 06:56:21;;;;;;;;;;;8.60;74.10;;;;;;5271985;28;19948;-37
2022/01/22 06:58:52;;;;;;;;;;;8.40;75.00;;;;;;5272186;28;19920;-32
2022/01/22 07:01:23;;;;;;;;;;;8.30;75.20;;;;;;5271821;28;20376;-34
2022/01/22 07:03:54;;;;;;;9.93;5.60;;;8.10;74.90;;;;;;5270974;28;19966;-31
2022/01/22 07:06:25;;;;;;;9.83;5.63;;;8.10;74.90;;;;;;5271406;28;20093;-32
2022/01/22 07:08:56;;;;;;;16.33;7.37;;;8.00;75.70;;;;;;5270086;28;20143;-31
2022/01/22 07:11:27;;;;;;;12.40;6.97;;;8.00;74.90;;;;;;5271000;28;20114;-32
2022/01/22 07:13:58;;;;;;;13.20;7.43;;;8.00;75.90;;;;;;5270623;28;20051;-33
2022/01/22 07:16:29;;;;;;;14.03;7.13;;;8.00;75.40;;;;;;5270963;28;20467;-32
2022/01/22 07:19:02;;;;;;;10.60;6.10;;;8.10;75.10;;;;;;5270980;28;20444;-37
2022/01/22 07:21:33;;;;;;;10.53;6.20;;;8.00;74.90;;;;;;5270956;28;20046;-37
2022/01/22 07:26:35;;;;;;;9.10;5.73;;;8.00;75.40;;;;;;5271182;28;20047;-38
2022/01/22 07:29:06;;;;;;;11.67;5.90;;;8.00;74.60;;;;;;5269876;28;20414;-34
2022/01/22 07:31:37;;;;;;;10.70;7.20;;;7.90;74.80;;;;;;5270705;28;20047;-37
2022/01/22 07:34:08;;;;;;;12.20;6.63;;;7.90;75.20;;;;;;5270637;28;20130;-35
2022/01/22 07:36:39;;;;;;;8.93;4.50;;;7.80;75.10;;;;;;5271098;28;20074;-36
2022/01/22 07:39:10;;;;;;;9.87;5.17;;;7.80;75.20;;;;;;5269151;28;20500;-42
2022/01/22 07:41:41;;;;;;;14.30;9.40;;;7.70;75.10;;;;;;5270218;28;20051;-34
2022/01/22 07:44:12;;;;;;;11.77;8.13;;;7.70;75.70;;;;;;5270355;28;20097;-40
2022/01/22 07:46:43;;;;;;;24.63;18.40;;;7.60;75.50;;;;;;5269284;28;20047;-36
2022/01/22 07:49:19;;;;;;;11.87;7.00;;;7.60;76.20;;;;;;5270404;28;20052;-36
2022/01/22 07:51:50;;;;;;;10.63;6.23;;;7.60;75.50;;;;;;5270068;28;20044;-39
2022/01/22 07:54:21;;;;;;;11.70;7.90;;;7.60;75.90;;;;;;5270668;28;20040;-37
2022/01/22 07:56:52;;;;;;;11.23;7.60;;;7.60;76.10;;;;;;5270600;28;20044;-35
2022/01/22 07:59:23;;;;;;;9.77;6.03;;;7.60;75.40;;;;;;5270430;28;20069;-39
2022/01/22 08:01:54;;;;;;;15.00;9.67;;;7.50;75.10;;;;;;5270180;28;20044;-38
2022/01/22 08:04:25;;;;;;;14.17;9.97;;;7.50;75.90;;;;;;5268851;28;20043;-39
2022/01/22 08:06:58;;;;;;;11.43;7.67;;;7.50;75.90;;;;;;5269943;28;20094;-40
2022/01/22 08:09:30;;;;;;;12.40;8.02;;;7.50;75.60;;;;;;5269972;28;20064;-38
2022/01/22 08:12:01;;;;;;;10.93;5.53;;;7.50;75.60;;;;;;5270058;28;20068;-35
2022/01/22 08:14:32;;;;;;;12.37;8.97;;;7.50;75.80;;;;;;5269529;28;20054;-42
2022/01/22 08:17:03;;;;;;;10.47;7.03;;;7.50;75.50;;;;;;5270214;28;20051;-38
2022/01/22 08:19:34;;;;;;;8.90;5.10;;;7.50;76.30;;;;;;5269782;28;20549;-43
2022/01/22 08:22:05;;;;;;;12.13;8.93;;;7.40;76.10;;;;;;5269588;28;20051;-39
2022/01/22 08:24:36;;;;;;;23.20;18.87;;;7.50;76.20;;;;;;5269420;28;20048;-38
2022/01/22 08:29:42;;;;;;;8.63;6.53;;;7.50;77.00;;;;;;5269630;28;20553;-39
2022/01/22 08:37:33;;;;;;;10.23;6.70;;;7.80;76.00;;;;;;5270033;28;20412;-37
2022/01/22 08:40:05;;;;;;;28.97;13.23;;;7.90;76.00;;;;;;5269379;28;20055;-37
2022/01/22 08:42:36;;;;;;;11.43;5.57;;;7.90;76.70;;;;;;5269648;28;20036;-37
2022/01/22 08:45:08;;;;;;;7.00;5.20;;;7.90;76.20;;;;;;5269343;28;20044;-35
2022/01/22 08:47:40;;;;;;;19.33;8.60;;;7.80;76.20;;;;;;5269281;28;20040;-38
2022/01/22 08:50:11;;;;;;;10.73;5.80;;;7.90;76.40;;;;;;5267969;28;20119;-41
2022/01/22 08:52:42;;;;;;;10.27;6.47;;;7.90;76.60;;;;;;5269456;28;20127;-40
2022/01/22 08:55:13;;;;;;;13.07;7.07;;;7.90;76.10;;;;;;5269475;28;20087;-35
2022/01/22 08:57:49;;;;;;;23.73;11.37;;;7.90;75.90;;;;;;5268989;28;20497;-37
2022/01/22 09:00:20;;;;;;;24.87;11.87;;;7.90;76.50;;;;;;5269581;28;20048;-41
2022/01/22 09:02:51;;;;;;;19.03;11.83;;;7.90;76.80;;;;;;5269572;28;20371;-39
2022/01/22 09:05:30;;;;;;;15.53;9.97;;;7.80;75.60;;;;;;5267619;28;20051;-35
2022/01/22 09:08:02;;;;;;;7.70;4.27;;;7.80;76.40;;;;;;5267993;28;20546;-39
2022/01/22 09:10:34;;;;;;;8.93;5.50;;;7.70;76.30;;;;;;5268184;28;20044;-37
2022/01/22 09:13:04;;;;;;;15.13;7.87;;;7.70;76.80;;;;;;5269272;28;20448;-35
2022/01/22 09:15:36;;;;;;;9.47;4.87;;;7.70;77.10;;;;;;5269651;28;20051;-41
2022/01/22 09:18:08;;;;;;;16.47;9.87;;;7.70;77.00;;;;;;5269203;28;20044;-40
2022/01/22 09:23:10;;;;;;;7.50;4.00;;;7.60;76.80;;;;;;5269188;28;20040;-38
2022/01/22 09:25:41;;;;;;;6.03;4.00;;;7.60;76.60;;;;;;5269103;28;20051;-36
2022/01/22 09:28:13;;;;;;;7.17;4.20;;;7.60;76.70;;;;;;5271334;28;20044;-37
2022/01/22 09:30:46;;;;;;;10.97;4.63;;;7.60;77.20;;;;;;5272967;28;20044;-33
2022/01/22 09:33:19;;;;;;;6.37;3.73;;;7.60;76.40;;;;;;5272823;28;20048;-34
2022/01/22 09:35:50;;;;;;;7.18;4.47;;;7.50;77.30;;;;;;5271204;28;20059;-36
2022/01/22 09:38:21;;;;;;;17.93;5.97;;;7.60;76.80;;;;;;5273196;28;20047;-34
2022/01/22 09:40:52;;;;;;;8.00;5.20;;;7.50;77.00;;;;;;5272814;28;20052;-38
2022/01/22 09:43:23;;;;;;;9.03;4.20;;;7.50;76.30;;;;;;5273391;28;20047;-36
2022/01/22 09:45:55;;;;;;;4.77;3.03;;;7.50;77.00;;;;;;5272758;28;20534;-36
2022/01/22 09:48:26;;;;;;;7.50;3.90;;;7.50;77.70;;;;;;5271305;28;20048;-40
2022/01/22 09:50:57;;;;;;;8.27;4.37;;;7.50;77.70;;;;;;5272718;28;20051;-32
2022/01/22 09:53:28;;;;;;;7.60;4.07;;;7.50;77.50;;;;;;5254859;28;20081;-37
2022/01/22 09:55:59;;;;;;;6.03;4.13;;;7.50;77.10;;;;;;5272544;28;20056;-33
2022/01/22 09:58:30;;;;;;;8.10;5.93;;;7.60;77.90;;;;;;5272633;28;20067;-41
2022/01/22 10:01:29;;;;;;;14.87;6.27;;;7.60;77.30;;;;;;5272637;28;20067;-35
2022/01/22 10:04:01;;;;;;;17.00;13.73;;;7.60;77.60;;;;;;5272579;28;20528;-33
2022/01/22 10:06:34;;;;;;;9.80;5.82;;;7.60;77.80;;;;;;5272739;28;20051;-41
2022/01/22 10:09:23;;;;;;;14.13;5.40;;;7.50;77.60;;;;;;5272198;28;20090;-38
2022/01/22 10:12:12;;;;;;;6.77;4.03;;;7.50;77.70;;;;;;5271337;28;20044;-33
2022/01/22 10:15:05;;;;;;;9.13;6.20;;;7.60;77.50;;;;;;5272362;28;20393;-39
2022/01/22 10:17:49;;;;;;;8.02;4.30;;;7.60;77.90;;;;;;5272203;28;20075;-31
2022/01/22 10:20:29;;;;;;;16.23;6.47;;;7.50;77.10;;;;;;5272054;28;20051;-39
2022/01/22 10:23:23;;;;;;;11.40;5.17;;;7.60;78.30;;;;;;5272070;28;20111;-35
2022/01/22 10:26:00;;;;;;;;;;;7.50;78.00;;;;;;5272756;28;20497;-35
2022/01/22 10:28:46;;;;;;;11.70;5.33;;;7.60;77.20;;;;;;5271797;28;19920;-35
2022/01/22 10:31:23;;;;;;;18.70;13.10;;;7.60;78.20;;;;;;5271907;28;20447;-31
2022/01/22 10:34:08;;;;;;;52.60;33.10;;;7.60;78.70;;;;;;5270684;28;20044;-39
2022/01/22 10:36:39;;;;;;;28.03;19.80;;;7.60;78.30;;;;;;5271600;28;20040;-33
2022/01/22 10:39:22;;;;;;;12.20;7.80;;;7.60;77.60;;;;;;5271159;28;20142;-29
2022/01/22 10:41:53;;;;;;;13.77;10.40;;;7.50;77.90;;;;;;5271778;28;20044;-40
2022/01/22 10:44:40;;;;;;;15.50;12.97;;;7.60;78.90;;;;;;5271162;28;20044;-38
2022/01/22 10:47:19;;;;;;;30.73;15.00;;;7.60;78.60;;;;;;5271450;28;20040;-33
2022/01/22 10:49:50;;;;;;;12.87;8.93;;;7.60;78.70;;;;;;5269476;28;20197;-36
2022/01/22 10:52:21;;;;;;;41.30;19.07;;;7.60;78.40;;;;;;5254089;28;20068;-33
2022/01/22 10:54:59;;;;;;;21.80;10.07;;;7.60;78.60;;;;;;5253352;28;20149;-35
2022/01/22 10:57:30;;;;;;;23.53;13.50;;;7.50;78.30;;;;;;5270698;28;20067;-31
2022/01/22 11:00:01;;;;;;;8.23;5.63;;;7.60;78.60;;;;;;5271537;28;20144;-34
2022/01/22 11:02:35;;;;;;;17.27;9.07;;;7.50;79.10;;;;;;5269873;28;20131;-33
2022/01/22 11:05:07;;;;;;;20.00;11.10;;;7.60;79.00;;;;;;5271630;28;20068;-34
2022/01/22 11:07:38;;;;;;;17.80;9.93;;;7.60;78.60;;;;;;5271259;28;20442;-32
2022/01/22 11:10:09;;;;;;;10.87;5.53;;;7.60;79.10;;;;;;5271010;28;20051;-35
2022/01/22 11:12:40;;;;;;;16.73;10.20;;;7.60;79.50;;;;;;5271280;28;20040;-35
2022/01/22 11:15:11;;;;;;;12.17;7.53;;;7.60;79.70;;;;;;5270996;28;20056;-35
2022/01/22 11:17:42;;;;;;;16.43;7.50;;;7.50;78.60;;;;;;5271117;28;20406;-35
2022/01/22 11:20:13;;;;;;;15.20;8.63;;;7.60;78.60;;;;;;5269617;28;20071;-30
2022/01/22 11:22:45;;;;;;;17.40;9.07;;;7.50;79.50;;;;;;5269797;28;20051;-35
2022/01/22 11:25:16;;;;;;;13.40;6.50;;;7.50;79.50;;;;;;5271035;28;20086;-31
2022/01/22 11:27:47;;;;;;;21.13;10.97;;;7.60;80.80;;;;;;5270212;28;20040;-36
2022/01/22 11:30:18;;;;;;;14.40;7.10;;;7.60;80.50;;;;;;5271249;28;20500;-33
2022/01/22 11:32:52;;;;;;;;;;;7.70;81.40;;;;;;5269950;28;20056;-36
2022/01/22 11:35:28;;;;;;;;;;;8.20;80.70;;;;;;5271252;28;20423;-38
2022/01/22 11:38:09;;;;;;;;;;;8.60;79.90;;;;;;5271177;28;19920;-37
2022/01/22 11:40:40;;;;;;;7.97;4.60;;;9.00;79.50;;;;;;5270670;28;19965;-33
2022/01/22 11:43:14;;;;;;;13.20;7.10;;;9.30;78.50;;;;;;5270663;28;20051;-36
2022/01/22 11:45:51;;;;;;;10.73;5.60;;;9.50;78.00;;;;;;5270416;28;20071;-40
2022/01/22 11:48:24;;;;;;;15.97;8.30;;;9.70;78.10;;;;;;5270451;28;20044;-38
2022/01/22 11:51:15;;;;;;;18.90;9.60;;;9.90;78.10;;;;;;5268562;28;20059;-35
2022/01/22 11:54:01;;;;;;;27.03;13.37;;;10.10;77.80;;;;;;5270377;28;20052;-32
2022/01/22 11:56:52;;;;;;;17.47;12.27;;;10.30;77.70;;;;;;5270712;28;20052;-40
2022/01/22 11:59:30;;;;;;;11.00;7.63;;;10.40;77.40;;;;;;5269489;28;20040;-37
2022/01/22 12:02:03;;;;;;;12.17;6.40;;;10.50;77.00;;;;;;5269214;28;20452;-38
2022/01/22 12:04:37;;;;;;;10.65;5.40;;;10.60;77.00;;;;;;5268936;28;20047;-32
2022/01/22 12:07:10;;;;;;;14.40;8.00;;;10.70;76.40;;;;;;5270033;28;20051;-43
2022/01/22 12:09:54;;;;;;;14.97;8.87;;;10.80;75.90;;;;;;5270016;28;20101;-41
2022/01/22 12:15:35;;;;;;;17.40;9.43;;;11.00;76.30;;;;;;5254850;28;20071;-36
2022/01/22 12:18:15;;;;;;;21.40;11.27;;;11.10;76.20;;;;;;5267534;28;20048;-40
2022/01/22 12:23:30;;;;;;;15.90;8.97;;;11.20;74.80;;;;;;5262520;28;20414;-34
2022/01/22 12:26:02;;;;;;;14.63;9.00;;;11.20;74.20;;;;;;5267201;28;20083;-31
2022/01/22 12:28:33;;;;;;;15.27;8.83;;;11.30;74.10;;;;;;5265656;28;20036;-39
2022/01/22 12:31:19;;;;;;;18.77;10.73;;;11.30;73.80;;;;;;5267508;28;20495;-33
2022/01/22 12:34:08;;;;;;;23.48;11.02;;;11.30;73.70;;;;;;5267046;28;20110;-36
2022/01/22 12:36:41;;;;;;;21.87;10.80;;;11.40;74.00;;;;;;5267214;28;20059;-37
2022/01/22 12:39:17;;;;;;;25.10;10.20;;;11.40;73.20;;;;;;5267109;28;20048;-35
2022/01/22 12:41:55;;;;;;;23.43;12.87;;;11.40;73.30;;;;;;5266174;28;20060;-34
2022/01/22 12:44:36;;;;;;;17.23;9.00;;;11.50;73.30;;;;;;5262900;28;20135;-36
2022/01/22 12:47:10;;;;;;;49.20;32.37;;;11.60;73.30;;;;;;5267034;28;20055;-36
2022/01/22 12:49:43;;;;;;;24.77;15.30;;;11.60;72.80;;;;;;5265634;28;20054;-39
2022/01/22 12:52:14;;;;;;;25.45;17.15;;;11.60;72.80;;;;;;5267137;28;20042;-31
2022/01/22 12:54:48;;;;;;;26.27;16.17;;;11.60;73.10;;;;;;5266980;28;20481;-34
2022/01/22 12:57:24;;;;;;;18.57;13.00;;;11.70;73.40;;;;;;5266878;28;20410;-32
2022/01/22 13:00:08;;;;;;;18.42;12.38;;;11.70;73.30;;;;;;5267154;28;20040;-34
2022/01/22 13:02:43;;;;;;;16.43;9.60;;;11.60;73.40;;;;;;5271481;28;20562;-33
2022/01/22 13:05:15;;;;;;;17.87;10.30;;;11.70;73.60;;;;;;5271232;28;20481;-34
2022/01/22 13:07:55;;;;;;;15.53;9.07;;;11.70;73.40;;;;;;5269960;28;20052;-33
2022/01/22 13:10:32;;;;;;;14.90;9.30;;;11.70;73.40;;;;;;5270607;28;20465;-36
2022/01/22 13:13:05;;;;;;;14.73;7.87;;;11.70;73.60;;;;;;5270618;28;20059;-36
2022/01/22 13:15:37;;;;;;;14.00;7.35;;;11.80;73.70;;;;;;5270680;28;20415;-39
2022/01/22 13:18:09;;;;;;;13.90;9.53;;;11.80;73.70;;;;;;5268965;28;20044;-35
2022/01/22 13:20:42;;;;;;;15.23;10.30;;;11.90;73.90;;;;;;5269244;28;20071;-36
2022/01/22 13:23:20;;;;;;;17.08;11.18;;;11.90;74.10;;;;;;5270613;28;20036;-37
2022/01/22 13:25:53;;;;;;;13.83;9.60;;;11.90;74.30;;;;;;5270530;28;20067;-38
2022/01/22 13:28:28;;;;;;;26.02;23.42;;;12.00;74.10;;;;;;5270522;28;20044;-33
2022/01/22 13:31:04;;;;;;;15.43;13.27;;;12.00;74.20;;;;;;5270901;28;20140;-34
2022/01/22 13:33:54;;;;;;;13.70;8.10;;;12.00;74.00;;;;;;5270884;28;20044;-33
2022/01/22 13:37:30;;;;;;;15.83;8.50;;;12.00;73.90;;;;;;5269941;28;20128;-36
2022/01/22 13:47:39;;;;;;;12.13;8.07;;;12.00;72.70;;;;;;5268826;28;20052;-36
2022/01/22 13:48:29;;;;;;;12.97;8.60;;;12.00;72.90;;;;;;5278939;28;20119;-36
2022/01/22 13:51:01;;;;;;;26.07;21.43;;;12.00;72.20;;;;;;5272507;28;20055;-33
2022/01/22 13:53:32;;;;;;;28.27;18.43;;;12.00;72.40;;;;;;5273860;28;20067;-32
2022/01/22 13:56:06;;;;;;;31.20;22.37;;;12.10;72.10;;;;;;5271044;28;20047;-35
2022/01/22 13:58:38;;;;;;;48.07;34.80;;;12.20;72.00;;;;;;5279369;28;20048;-37
2022/01/22 14:04:20;;;;;;;31.87;26.17;;;12.30;71.70;;;;;;5248018;28;20052;-34
2022/01/22 14:06:51;;;;;;;35.15;27.27;;;12.30;71.50;;;;;;5249377;28;20464;-31
2022/01/22 14:09:23;;;;;;;31.43;24.97;;;12.30;71.80;;;;;;5249231;28;20053;-38
2022/01/22 14:12:09;;;;;;;23.97;21.27;;;12.40;71.40;;;;;;5247807;28;20558;-35
2022/01/22 14:14:57;;;;;;;17.97;15.30;;;12.40;71.10;;;;;;5215447;28;20464;-36
2022/01/22 14:17:39;;;;;;;24.77;19.67;;;12.40;71.20;;;;;;5247633;28;20052;-39
2022/01/22 14:20:21;;;;;;;16.90;13.47;;;12.40;71.20;;;;;;5230260;28;20114;-36
2022/01/22 14:23:04;;;;;;;18.43;14.33;;;12.40;71.00;;;;;;5228169;28;20136;-37
2022/01/22 14:25:54;;;;;;;17.97;13.70;;;12.40;70.50;;;;;;5227994;28;20375;-37
2022/01/22 14:28:47;;;;;;;13.90;10.77;;;12.30;70.40;;;;;;5227213;28;20045;-39
2022/01/22 14:31:36;;;;;;;14.70;9.83;;;12.40;70.00;;;;;;5225702;28;20494;-35
2022/01/22 14:34:11;;;;;;;15.27;9.87;;;12.40;70.30;;;;;;5226734;28;20044;-36
2022/01/22 14:36:43;;;;;;;18.03;12.00;;;12.30;70.00;;;;;;5227807;28;20048;-34
2022/01/22 14:39:27;;;;;;;14.50;9.68;;;12.40;70.00;;;;;;5223839;28;20053;-34
2022/01/22 14:44:55;;;;;;;17.33;11.77;;;12.30;70.00;;;;;;5267836;28;20821;-33
2022/01/22 14:47:27;;;;;;;28.07;18.63;;;12.30;70.20;;;;;;5267881;28;20078;-36
2022/01/22 14:50:06;;;;;;;17.50;13.53;;;12.30;70.30;;;;;;5267597;28;20090;-38
2022/01/22 14:52:37;;;;;;;36.70;29.87;;;12.20;70.10;;;;;;5269166;28;20051;-32
2022/01/22 14:55:09;;;;;;;21.97;17.77;;;12.20;70.40;;;;;;5269207;28;20485;-33
2022/01/22 14:57:42;;;;;;;37.63;22.97;;;12.30;70.10;;;;;;5268964;28;20044;-34
2022/01/22 15:00:15;;;;;;;61.07;32.23;;;12.30;70.00;;;;;;5268825;28;20394;-35
2022/01/22 15:02:47;;;;;;;30.33;17.33;;;12.30;70.40;;;;;;5268755;28;20040;-32
2022/01/22 15:05:19;;;;;;;24.50;16.40;;;12.30;70.00;;;;;;5268697;28;20417;-38
2022/01/22 15:07:50;;;;;;;22.87;15.70;;;12.30;70.60;;;;;;5267575;28;20126;-37
2022/01/22 15:10:22;;;;;;;33.60;17.57;;;12.30;70.00;;;;;;5268668;28;20055;-40
2022/01/22 15:12:53;;;;;;;30.53;15.87;;;12.30;70.00;;;;;;5267712;28;20446;-34
2022/01/22 15:15:30;;;;;;;37.93;20.10;;;12.30;69.90;;;;;;5268638;28;20056;-39
2022/01/22 15:18:09;;;;;;;23.93;13.70;;;12.30;70.10;;;;;;5268874;28;20040;-40
2022/01/22 15:20:40;;;;;;;36.60;22.67;;;12.20;69.60;;;;;;5268873;28;20067;-36